地図

経路データ

SID SEASON NUMBER BASIN SUBBASIN NAME ISO_TIME NATURE LAT LON WMO_WIND WMO_PRES WMO_AGENCY TRACK_TYPE DIST2LAND LANDFALL IFLAG USA_AGENCY USA_ATCF_ID USA_LAT USA_LON USA_RECORD USA_STATUS USA_WIND USA_PRES USA_SSHS USA_R34_NE USA_R34_SE USA_R34_SW USA_R34_NW USA_R50_NE USA_R50_SE USA_R50_SW USA_R50_NW USA_R64_NE USA_R64_SE USA_R64_SW USA_R64_NW USA_POCI USA_ROCI USA_RMW USA_EYE TOKYO_LAT TOKYO_LON TOKYO_GRADE TOKYO_WIND TOKYO_PRES TOKYO_R50_DIR TOKYO_R50_LONG TOKYO_R50_SHORT TOKYO_R30_DIR TOKYO_R30_LONG TOKYO_R30_SHORT TOKYO_LAND CMA_LAT CMA_LON CMA_CAT CMA_WIND CMA_PRES HKO_LAT HKO_LON HKO_CAT HKO_WIND HKO_PRES NEWDELHI_LAT NEWDELHI_LON NEWDELHI_GRADE NEWDELHI_WIND NEWDELHI_PRES NEWDELHI_CI NEWDELHI_DP NEWDELHI_POCI REUNION_LAT REUNION_LON REUNION_TYPE REUNION_WIND REUNION_PRES REUNION_TNUM REUNION_CI REUNION_RMW REUNION_R34_NE REUNION_R34_SE REUNION_R34_SW REUNION_R34_NW REUNION_R50_NE REUNION_R50_SE REUNION_R50_SW REUNION_R50_NW REUNION_R64_NE REUNION_R64_SE REUNION_R64_SW REUNION_R64_NW BOM_LAT BOM_LON BOM_TYPE BOM_WIND BOM_PRES BOM_TNUM BOM_CI BOM_RMW BOM_R34_NE BOM_R34_SE BOM_R34_SW BOM_R34_NW BOM_R50_NE BOM_R50_SE BOM_R50_SW BOM_R50_NW BOM_R64_NE BOM_R64_SE BOM_R64_SW BOM_R64_NW BOM_ROCI BOM_POCI BOM_EYE BOM_POS_METHOD BOM_PRES_METHOD NADI_LAT NADI_LON NADI_CAT NADI_WIND NADI_PRES WELLINGTON_LAT WELLINGTON_LON WELLINGTON_WIND WELLINGTON_PRES DS824_LAT DS824_LON DS824_STAGE DS824_WIND DS824_PRES TD9636_LAT TD9636_LON TD9636_STAGE TD9636_WIND TD9636_PRES TD9635_LAT TD9635_LON TD9635_WIND TD9635_PRES TD9635_ROCI NEUMANN_LAT NEUMANN_LON NEUMANN_CLASS NEUMANN_WIND NEUMANN_PRES MLC_LAT MLC_LON MLC_CLASS MLC_WIND MLC_PRES USA_GUST BOM_GUST BOM_GUST_PER REUNION_GUST REUNION_GUST_PER USA_SEAHGT USA_SEARAD_NE USA_SEARAD_SE USA_SEARAD_SW USA_SEARAD_NW STORM_SPEED STORM_DIR
1891281N18275 1891 46 NA CS NOT_NAMED 1891-10-07 12:00:00 TS 18.0000 -85.0000 30 hurdat_atl main 235 235 O_____________ hurdat_atl AL081891 18.0000 -85.0000 TD 30 -1 5 2
1891281N18275 1891 46 NA CS NOT_NAMED 1891-10-07 15:00:00 TS 18.2500 -85.0000 main 268 268 P_____________ AL081891 18.2500 -85.0000 TD 30 -1 5 2
1891281N18275 1891 46 NA CS NOT_NAMED 1891-10-07 18:00:00 TS 18.5000 -85.0000 30 hurdat_atl main 274 267 O_____________ hurdat_atl AL081891 18.5000 -85.0000 TD 30 -1 5 2
1891281N18275 1891 46 NA CS NOT_NAMED 1891-10-07 21:00:00 TS 18.7500 -85.0000 main 263 258 P_____________ AL081891 18.7500 -85.0000 TD 32 -1 5 2
1891281N18275 1891 46 NA CS NOT_NAMED 1891-10-08 00:00:00 TS 19.0000 -85.0000 35 hurdat_atl main 258 254 O_____________ hurdat_atl AL081891 19.0000 -85.0000 TS 35 0 5 358
1891281N18275 1891 46 NA CS NOT_NAMED 1891-10-08 03:00:00 TS 19.2500 -85.0149 main 254 245 P_____________ AL081891 19.2500 -85.0149 TS 35 0 5 2
1891281N18275 1891 46 NA CS NOT_NAMED 1891-10-08 06:00:00 TS 19.5000 -85.0000 35 hurdat_atl main 245 233 O_____________ hurdat_atl AL081891 19.5000 -85.0000 TS 35 0 5 9
1891281N18275 1891 46 NA CS NOT_NAMED 1891-10-08 09:00:00 TS 19.7350 -84.9299 main 235 201 P_____________ AL081891 19.7350 -84.9299 TS 35 0 5 21
1891281N18275 1891 46 NA CS NOT_NAMED 1891-10-08 12:00:00 TS 20.0000 -84.8000 35 hurdat_atl main 201 168 O_____________ hurdat_atl AL081891 20.0000 -84.8000 TS 35 0 7 26
1891281N18275 1891 46 NA CS NOT_NAMED 1891-10-08 15:00:00 TS 20.3275 -84.6150 main 168 123 P_____________ AL081891 20.3275 -84.6150 TS 35 0 8 28
1891281N18275 1891 46 NA CS NOT_NAMED 1891-10-08 18:00:00 TS 20.7000 -84.4000 35 hurdat_atl main 123 84 O_____________ hurdat_atl AL081891 20.7000 -84.4000 TS 35 0 9 28
1891281N18275 1891 46 NA CS NOT_NAMED 1891-10-08 21:00:00 TS 21.0775 -84.1924 main 84 44 P_____________ AL081891 21.0775 -84.1924 TS 35 0 9 25
1891281N18275 1891 46 NA CS NOT_NAMED 1891-10-09 00:00:00 TS 21.5000 -84.0000 35 hurdat_atl main 44 10 O_____________ hurdat_atl AL081891 21.5000 -84.0000 TS 35 0 9 21
1891281N18275 1891 46 NA CS NOT_NAMED 1891-10-09 03:00:00 TS 21.9475 -83.8349 main 20 0 P_____________ AL081891 21.9475 -83.8349 TS 37 0 10 16
1891281N18275 1891 46 NA NA NOT_NAMED 1891-10-09 06:00:00 TS 22.5000 -83.7000 40 hurdat_atl main 0 0 O_____________ hurdat_atl AL081891 22.5000 -83.7000 TS 40 0 13 9
1891281N18275 1891 46 NA GM NOT_NAMED 1891-10-09 09:00:00 TS 23.2124 -83.6292 main 39 39 P_____________ AL081891 23.2124 -83.6292 TS 40 0 15 7
1891281N18275 1891 46 NA GM NOT_NAMED 1891-10-09 12:00:00 TS 24.0000 -83.5000 40 hurdat_atl main 123 123 O_____________ hurdat_atl AL081891 24.0000 -83.5000 TS 40 0 16 13
1891281N18275 1891 46 NA GM NOT_NAMED 1891-10-09 15:00:00 TS 24.7497 -83.2319 main 192 118 P_____________ AL081891 24.7497 -83.2319 TS 37 0 16 23
1891281N18275 1891 46 NA GM NOT_NAMED 1891-10-09 18:00:00 ET 25.5000 -82.8000 35 hurdat_atl main 118 38 O_____________ hurdat_atl AL081891 25.5000 -82.8000 EX 35 -4 18 33
1891281N18275 1891 46 NA GM NOT_NAMED 1891-10-09 21:00:00 ET 26.2582 -82.1583 main 29 0 P_____________ AL081891 26.2582 -82.1583 EX 32 -4 19 38
1891281N18275 1891 46 NA NA NOT_NAMED 1891-10-10 00:00:00 ET 27.0000 -81.5000 30 hurdat_atl main 0 0 O_____________ hurdat_atl AL081891 27.0000 -81.5000 EX 30 -4 18 34
1891281N18275 1891 46 NA NA NOT_NAMED 1891-10-10 03:00:00 ET 27.7070 -81.0538 main 0 0 P_____________ AL081891 27.7070 -81.0538 EX 30 -4 16 27
1891281N18275 1891 46 NA NA NOT_NAMED 1891-10-10 06:00:00 ET 28.4000 -80.7000 30 hurdat_atl main 0 0 O_____________ hurdat_atl AL081891 28.4000 -80.7000 EX 30 -4 15 23
1891281N18275 1891 46 NA NA NOT_NAMED 1891-10-10 09:00:00 ET 29.1145 -80.3788 main 44 44 P_____________ AL081891 29.1145 -80.3788 EX 30 -4 15 24
1891281N18275 1891 46 NA NA NOT_NAMED 1891-10-10 12:00:00 ET 29.8000 -80.0000 30 hurdat_atl main 115 115 O_____________ hurdat_atl AL081891 29.8000 -80.0000 EX 30 -4 15 31
1891281N18275 1891 46 NA NA NOT_NAMED 1891-10-10 15:00:00 ET 30.4294 -79.4818 main 184 184 P_____________ AL081891 30.4294 -79.4818 EX 30 -4 16 41
1891281N18275 1891 46 NA NA NOT_NAMED 1891-10-10 18:00:00 ET 31.0000 -78.8000 30 hurdat_atl main 211 204 O_____________ hurdat_atl AL081891 31.0000 -78.8000 EX 30 -4 18 51
1891281N18275 1891 46 NA NA NOT_NAMED 1891-10-10 21:00:00 ET 31.5460 -77.9009 main 218 215 P_____________ AL081891 31.5460 -77.9009 EX 30 -4 18 57
1891281N18275 1891 46 NA NA NOT_NAMED 1891-10-11 00:00:00 ET 32.0000 -77.0000 30 hurdat_atl main 231 224 O_____________ hurdat_atl AL081891 32.0000 -77.0000 EX 30 -4 16 60
1891281N18275 1891 46 NA NA NOT_NAMED 1891-10-11 03:00:00 ET 32.3293 -76.3237 main 238 230 P_____________ AL081891 32.3293 -76.3237 EX 32 -4 12 59
1891281N18275 1891 46 NA NA NOT_NAMED 1891-10-11 06:00:00 ET 32.6000 -75.8000 35 hurdat_atl main 242 224 O_____________ hurdat_atl AL081891 32.6000 -75.8000 EX 35 -4 10 55
1891281N18275 1891 46 NA NA NOT_NAMED 1891-10-11 09:00:00 ET 32.8997 -75.3472 main 229 216 P_____________ AL081891 32.8997 -75.3472 EX 37 -4 9 48
1891281N18275 1891 46 NA NA NOT_NAMED 1891-10-11 12:00:00 ET 33.2000 -75.0000 40 hurdat_atl main 216 205 O_____________ hurdat_atl AL081891 33.2000 -75.0000 EX 40 -4 8 41
1891281N18275 1891 46 NA NA NOT_NAMED 1891-10-11 15:00:00 ET 33.4998 -74.7271 main 212 205 P_____________ AL081891 33.4998 -74.7271 EX 42 -4 7 35
1891281N18275 1891 46 NA NA NOT_NAMED 1891-10-11 18:00:00 ET 33.8000 -74.5000 45 hurdat_atl main 205 198 O_____________ hurdat_atl AL081891 33.8000 -74.5000 EX 45 -4 7 34
1891281N18275 1891 46 NA NA NOT_NAMED 1891-10-11 21:00:00 ET 34.1150 -74.2351 main 211 204 P_____________ AL081891 34.1150 -74.2351 EX 47 -4 7 35
1891281N18275 1891 46 NA NA NOT_NAMED 1891-10-12 00:00:00 ET 34.4000 -74.0000 50 hurdat_atl main 204 197 O_____________ hurdat_atl AL081891 34.4000 -74.0000 EX 50 -4 6 33
1891281N18275 1891 46 NA NA NOT_NAMED 1891-10-12 03:00:00 ET 34.6299 -73.8273 main 204 196 P_____________ AL081891 34.6299 -73.8273 EX 52 -4 5 32
1891281N18275 1891 46 NA NA NOT_NAMED 1891-10-12 06:00:00 ET 34.8000 -73.7000 55 hurdat_atl main 197 197 O_____________ hurdat_atl AL081891 34.8000 -73.7000 EX 55 -4 3 36
1891281N18275 1891 46 NA NA NOT_NAMED 1891-10-12 09:00:00 ET 34.9000 -73.5923 main 199 199 P_____________ AL081891 34.9000 -73.5923 EX 55 -4 3 40
1891281N18275 1891 46 NA NA NOT_NAMED 1891-10-12 12:00:00 ET 35.0000 -73.5000 55 hurdat_atl main 201 196 O_____________ hurdat_atl AL081891 35.0000 -73.5000 EX 55 -4 3 31
1891281N18275 1891 46 NA NA NOT_NAMED 1891-10-12 15:00:00 ET 35.1700 -73.4000 main 201 197 P_____________ AL081891 35.1700 -73.4000 EX 55 -4 4 22
1891281N18275 1891 46 NA NA NOT_NAMED 1891-10-12 18:00:00 ET 35.4000 -73.3000 55 hurdat_atl main 203 201 O_____________ hurdat_atl AL081891 35.4000 -73.3000 EX 55 -4 5 18
1891281N18275 1891 46 NA NA NOT_NAMED 1891-10-12 21:00:00 ET 35.6550 -73.1999 main 207 206 P_____________ AL081891 35.6550 -73.1999 EX 55 -4 6 15
1891281N18275 1891 46 NA NA NOT_NAMED 1891-10-13 00:00:00 ET 36.0000 -73.1000 55 hurdat_atl main 216 216 O_____________ hurdat_atl AL081891 36.0000 -73.1000 EX 55 -4 8 10
1891281N18275 1891 46 NA NA NOT_NAMED 1891-10-13 03:00:00 ET 36.4700 -73.0147 main 237 237 P_____________ AL081891 36.4700 -73.0147 EX 55 -4 10 9
1891281N18275 1891 46 NA NA NOT_NAMED 1891-10-13 06:00:00 ET 37.0000 -72.9000 55 hurdat_atl main 241 220 O_____________ hurdat_atl AL081891 37.0000 -72.9000 EX 55 -4 11 11
1891281N18275 1891 46 NA NA NOT_NAMED 1891-10-13 09:00:00 ET 37.4997 -72.7591 main 220 220 P_____________ AL081891 37.4997 -72.7591 EX 55 -4 11 18
1891281N18275 1891 46 NA NA NOT_NAMED 1891-10-13 12:00:00 ET 38.0000 -72.5000 55 hurdat_atl main 226 218 O_____________ hurdat_atl AL081891 38.0000 -72.5000 EX 55 -4 11 29
1891281N18275 1891 46 NA NA NOT_NAMED 1891-10-13 15:00:00 ET 38.5002 -72.0452 main 227 221 P_____________ AL081891 38.5002 -72.0452 EX 55 -4 13 38
1891281N18275 1891 46 NA NA NOT_NAMED 1891-10-13 18:00:00 ET 39.0000 -71.5000 55 hurdat_atl main 221 198 O_____________ hurdat_atl AL081891 39.0000 -71.5000 EX 55 -4 13 39
1891281N18275 1891 46 NA NA NOT_NAMED 1891-10-13 21:00:00 ET 39.4998 -70.9993 main 198 167 P_____________ AL081891 39.4998 -70.9993 EX 55 -4 13 38
1891281N18275 1891 46 NA NA NOT_NAMED 1891-10-14 00:00:00 ET 40.0000 -70.5000 55 hurdat_atl main 167 125 O_____________ hurdat_atl AL081891 40.0000 -70.5000 EX 55 -4 13 37
1891281N18275 1891 46 NA NA NOT_NAMED 1891-10-14 03:00:00 ET 40.4998 -69.9993 main 125 88 P_____________ AL081891 40.4998 -69.9993 EX 55 -4 13 37
1891281N18275 1891 46 NA NA NOT_NAMED 1891-10-14 06:00:00 ET 41.0000 -69.5000 55 hurdat_atl main 88 73 O_____________ hurdat_atl AL081891 41.0000 -69.5000 EX 55 -4 12 36
1891281N18275 1891 46 NA NA NOT_NAMED 1891-10-14 09:00:00 ET 41.4760 -69.0715 main 77 77 P_____________ AL081891 41.4760 -69.0715 EX 52 -4 12 37
1891281N18275 1891 46 NA NA NOT_NAMED 1891-10-14 12:00:00 ET 42.0000 -68.5000 50 hurdat_atl main 125 125 O_____________ hurdat_atl AL081891 42.0000 -68.5000 EX 50 -4 16 43
1891281N18275 1891 46 NA NA NOT_NAMED 1891-10-14 15:00:00 ET 42.6273 -67.6121 main 172 59 P_____________ AL081891 42.6273 -67.6121 EX 47 -4 20 49
1891281N18275 1891 46 NA NA NOT_NAMED 1891-10-14 18:00:00 ET 43.3000 -66.5000 45 hurdat_atl main 54 0 O_____________ hurdat_atl AL081891 43.3000 -66.5000 EX 45 -4 22 53
1891281N18275 1891 46 NA NA NOT_NAMED 1891-10-14 21:00:00 ET 43.9434 -65.2493 main 0 0 P_____________ AL081891 43.9434 -65.2493 EX 42 -4 22 54
1891281N18275 1891 46 NA NA NOT_NAMED 1891-10-15 00:00:00 ET 44.6000 -64.0000 40 hurdat_atl main 7 0 O_____________ hurdat_atl AL081891 44.6000 -64.0000 EX 40 -4 21 51
1891281N18275 1891 46 NA NA NOT_NAMED 1891-10-15 03:00:00 ET 45.2834 -62.9444 main 0 0 P_____________ AL081891 45.2834 -62.9444 EX 40 -4 20 45
1891281N18275 1891 46 NA NA NOT_NAMED 1891-10-15 06:00:00 ET 46.0000 -62.0000 40 hurdat_atl main 22 13 O_____________ hurdat_atl AL081891 46.0000 -62.0000 EX 40 -4 18 42
1891281N18275 1891 46 NA NA NOT_NAMED 1891-10-15 09:00:00 ET 46.6639 -61.1696 main 18 11 P_____________ AL081891 46.6639 -61.1696 EX 37 -4 19 39
1891281N18275 1891 46 NA NA NOT_NAMED 1891-10-15 12:00:00 ET 47.5000 -60.2000 35 hurdat_atl main 68 0 O_____________ hurdat_atl AL081891 47.5000 -60.2000 EX 35 -4 25 38
1891281N18275 1891 46 NA NA NOT_NAMED 1891-10-15 15:00:00 ET 48.6333 -58.8699 main 0 0 P_____________ AL081891 48.6333 -58.8699 EX 32 -4 32 39
1891281N18275 1891 46 NA NA NOT_NAMED 1891-10-15 18:00:00 ET 50.0000 -57.1000 30 hurdat_atl main 0 0 O_____________ hurdat_atl AL081891 50.0000 -57.1000 EX 30 -4 38 42
1891281N18275 1891 46 NA NA NOT_NAMED 1891-10-15 21:00:00 ET 51.4887 -54.8387 main 48 48 P_____________ AL081891 51.4887 -54.8387 EX 30 -4 43 45
1891281N18275 1891 46 NA NA NOT_NAMED 1891-10-16 00:00:00 ET 53.0000 -52.2000 30 hurdat_atl main 237 O_____________ hurdat_atl AL081891 53.0000 -52.2000 EX 30 -4 44 46

IBTrACS Databaseについて

本データベースは、米国NOAAが公開する1842年以降の世界の熱帯低気圧のベストトラックデータアーカイブInternational Best Track Archive for Climate Stewardship (IBTrACS)を、ウェブで閲覧しやすい形式に変換したものです。

最終更新日:2021-11-26